Observations for Trim Patrick St
| Time | AQI | Temp °C | Hum % | Pres Pa | CO μg/m³ | H₂S μg/m³ | NO μg/m³ | NO₂ μg/m³ | O₃ μg/m³ | SO₂ μg/m³ | PM1 μg/m³ | PM2.5 μg/m³ | PM10 μg/m³ |
|---|---|---|---|---|---|---|---|---|---|---|---|---|---|
| Friday 28 August 2026 | |||||||||||||
| 08:42 | 2 | 17.6 | 87 | 38,459 | 0.23 | 2.22 | 2.32 | 8.41 | 25.98 | 1.42 | 18.29 | 26.72 | 29.39 |
| 08:39 | 2 | 17.5 | 87 | 38,459 | 0.21 | 1.54 | 2.34 | 1.59 | 29.05 | 1.22 | 20 | 28.76 | 31.64 |
| 08:35 | 2 | 17.5 | 87 | 38,459 | 0.2 | 1.98 | 2.43 | 6.67 | 28.52 | 0.62 | 19.14 | 26.01 | 28.61 |
| 08:34 | 2 | 17.5 | 87 | 38,459 | 0.21 | 1.9 | 2.43 | 5.65 | 29.33 | 0.11 | 18.29 | 26.68 | 29.35 |
| 08:33 | 2 | 17.5 | 87 | 38,459 | 0.22 | 1.83 | 2.44 | 1.52 | 30.76 | 1.11 | 17.43 | 25.98 | 28.58 |
| 08:32 | 2 | 17.5 | 87 | 38,459 | 0.25 | 3.34 | 2.42 | 19.42 | 29.96 | 0 | 18.29 | 25.97 | 28.57 |
| 08:31 | 2 | 17.5 | 87 | 38,459 | 0.22 | 2.51 | 2.36 | 17.25 | 20.82 | 0.29 | 18.29 | 25.31 | 27.84 |
| 08:30 | 2 | 17.5 | 87 | 38,459 | 0.22 | 1.64 | 2.36 | 4.97 | 35.38 | 1.18 | 16.57 | 24.62 | 27.09 |
| 08:29 | 2 | 17.5 | 87 | 38,459 | 0.22 | 2.58 | 2.37 | 12.82 | 23.63 | 0 | 18.29 | 26 | 28.59 |
| 08:28 | 2 | 17.5 | 87 | 38,459 | 0.23 | 2.9 | 2.5 | 12.23 | 29.67 | 0.1 | 16.57 | 23.93 | 26.32 |
| 08:27 | 2 | 17.4 | 87 | 38,459 | 0.25 | 3.03 | 2.56 | 11.8 | 23.39 | 0.72 | 17.43 | 25.28 | 27.81 |
| 08:26 | 2 | 17.4 | 87 | 38,459 | 0.26 | 4 | 2.61 | 24.19 | 14.28 | 1.93 | 16.57 | 23.93 | 26.32 |
| 08:25 | 2 | 17.4 | 87 | 38,459 | 0.25 | 4.23 | 2.5 | 27.2 | 14.47 | 3.01 | 15.71 | 23.93 | 26.32 |
| 08:24 | 2 | 17.4 | 87 | 38,459 | 0.23 | 2.38 | 2.5 | 14.62 | 22.71 | 0.7 | 14.86 | 24.61 | 27.07 |
| 08:23 | 2 | 17.4 | 87 | 38,459 | 0.22 | 1.23 | 2.38 | 3.7 | 28.17 | 0.81 | 16.57 | 24.61 | 27.07 |
| 08:22 | 2 | 17.4 | 87 | 38,459 | 0.21 | 1.67 | 2.48 | 2.88 | 31.04 | 0.41 | 17.43 | 24.6 | 27.06 |
| 08:21 | 2 | 17.4 | 87 | 38,459 | 0.24 | 2.56 | 2.52 | 10.86 | 25.92 | 0.21 | 17.43 | 23.23 | 25.55 |
| 08:20 | 2 | 17.4 | 87 | 38,459 | 0.26 | 3.21 | 2.87 | 15.14 | 22.33 | 2.01 | 21.72 | 28.01 | 30.81 |
| 08:19 | 2 | 17.3 | 88 | 38,459 | 0.27 | 3.37 | 3.1 | 18.61 | 23.74 | 2.77 | 17.43 | 23.89 | 26.28 |
| 08:18 | 2 | 17.3 | 87 | 38,459 | 0.25 | 3.14 | 3.25 | 21.41 | 17.61 | 1.75 | 14.86 | 23.91 | 26.31 |